createdAt,value
2019-04-10T00:02:15.368Z,101330.28
2019-04-10T00:04:45.591Z,101323.84
2019-04-10T00:07:18.355Z,101326.03
2019-04-10T00:09:47.559Z,101323.66
2019-04-10T00:12:17.737Z,101323.30
2019-04-10T00:14:48.380Z,101331.86
2019-04-10T00:17:18.617Z,101327.13
2019-04-10T00:19:48.751Z,101328.77
2019-04-10T00:22:20.123Z,101320.34
2019-04-10T00:24:50.481Z,101321.78
2019-04-10T00:27:20.818Z,101324.34
2019-04-10T00:29:50.720Z,101316.53
2019-04-10T00:32:21.634Z,101318.03
2019-04-10T00:34:51.939Z,101322.00
2019-04-10T00:37:26.717Z,101321.37
2019-04-10T00:39:53.507Z,101314.35
2019-04-10T00:42:23.400Z,101322.28
2019-04-10T00:44:54.201Z,101314.66
2019-04-10T00:47:24.232Z,101312.75
2019-04-10T00:49:54.120Z,101320.12
2019-04-10T00:52:24.149Z,101318.78
2019-04-10T00:54:53.997Z,101325.55
2019-04-10T00:57:25.450Z,101324.75
2019-04-10T00:59:56.831Z,101319.44
2019-04-10T01:02:27.207Z,101317.94
2019-04-10T01:04:57.112Z,101316.15
2019-04-10T01:07:36.605Z,101321.20
2019-04-10T01:09:58.710Z,101322.38
2019-04-10T01:12:28.737Z,101318.98
2019-04-10T01:14:58.651Z,101318.77
2019-04-10T01:17:28.964Z,101324.70
2019-04-10T01:19:58.843Z,101324.84
2019-04-10T01:22:28.745Z,101334.29
2019-04-10T01:24:59.816Z,101324.69
2019-04-10T01:27:29.912Z,101329.86
2019-04-10T01:30:00.462Z,101322.84
2019-04-10T01:32:30.452Z,101323.03
2019-04-10T01:35:00.394Z,101319.47
2019-04-10T01:37:30.305Z,101328.41
2019-04-10T01:40:00.502Z,101334.42
2019-04-10T01:42:30.423Z,101332.45
2019-04-10T01:45:00.784Z,101330.65
2019-04-10T01:47:31.061Z,101333.62
2019-04-10T01:50:02.291Z,101330.09
2019-04-10T01:52:33.304Z,101334.55
2019-04-10T01:55:17.214Z,101336.85
2019-04-10T01:57:35.118Z,101333.44
2019-04-10T02:00:06.666Z,101330.77
2019-04-10T02:02:45.907Z,101331.56
2019-04-10T02:05:16.545Z,101329.45
2019-04-10T02:07:59.376Z,101328.98
2019-04-10T02:10:18.563Z,101337.09
2019-04-10T02:12:48.944Z,101333.65
2019-04-10T02:15:19.688Z,101333.56
2019-04-10T02:17:49.751Z,101325.29
2019-04-10T02:20:21.288Z,101331.38
2019-04-10T02:22:51.934Z,101323.79
2019-04-10T02:25:22.407Z,101327.59
2019-04-10T02:27:52.303Z,101327.42
2019-04-10T02:30:24.054Z,101324.35
2019-04-10T02:32:54.602Z,101326.61
2019-04-10T02:35:25.206Z,101341.02
2019-04-10T02:37:56.188Z,101327.25
2019-04-10T02:40:28.733Z,101328.48
2019-04-10T02:43:00.097Z,101326.97
2019-04-10T02:45:30.344Z,101319.77
2019-04-10T02:48:01.685Z,101321.31
2019-04-10T02:50:33.221Z,101324.08
2019-04-10T02:53:05.358Z,101329.28
2019-04-10T02:55:36.655Z,101339.66
2019-04-10T02:58:07.964Z,101335.58
2019-04-10T03:00:38.302Z,101332.36
2019-04-10T03:03:09.476Z,101324.80
2019-04-10T03:05:40.621Z,101331.37
2019-04-10T03:08:11.550Z,101327.95
2019-04-10T03:10:49.411Z,101330.53
2019-04-10T03:13:15.193Z,101339.78
2019-04-10T03:15:45.311Z,101339.73
2019-04-10T03:18:16.772Z,101343.42
2019-04-10T03:20:47.334Z,101339.67
2019-04-10T03:23:17.656Z,101337.38
2019-04-10T03:25:48.837Z,101337.18
2019-04-10T03:28:19.295Z,101332.66
2019-04-10T03:30:49.608Z,101337.30
2019-04-10T03:33:31.132Z,101329.39
2019-04-10T03:36:00.591Z,101327.95
2019-04-10T03:38:30.476Z,101332.41
2019-04-10T03:41:00.415Z,101323.41
2019-04-10T03:43:30.340Z,101321.80
2019-04-10T03:46:01.193Z,101324.13
2019-04-10T03:48:31.653Z,101327.55
2019-04-10T03:51:01.792Z,101328.48
2019-04-10T03:53:35.183Z,101325.63
2019-04-10T03:56:05.426Z,101335.66
2019-04-10T03:58:35.652Z,101326.91
2019-04-10T04:01:06.843Z,101333.82
2019-04-10T04:03:37.832Z,101335.34
2019-04-10T04:06:07.771Z,101331.90
2019-04-10T04:08:37.675Z,101331.83
2019-04-10T04:11:07.883Z,101337.35
2019-04-10T04:13:38.122Z,101339.16
2019-04-10T04:16:08.840Z,101337.25
2019-04-10T04:18:39.405Z,101344.08
2019-04-10T04:21:09.821Z,101343.06
2019-04-10T04:23:39.720Z,101357.08
2019-04-10T04:26:10.633Z,101345.89
2019-04-10T04:28:41.808Z,101341.80
2019-04-10T04:31:12.941Z,101351.69
2019-04-10T04:33:43.018Z,101340.86
2019-04-10T04:36:12.922Z,101344.61
2019-04-10T04:38:43.262Z,101347.71
2019-04-10T04:41:13.327Z,101357.99
2019-04-10T04:43:44.782Z,101351.53
2019-04-10T04:46:14.984Z,101348.30
2019-04-10T04:48:45.364Z,101343.88
2019-04-10T04:51:15.452Z,101348.19
2019-04-10T04:53:45.527Z,101341.16
2019-04-10T04:56:15.828Z,101350.53
2019-04-10T04:58:45.690Z,101352.23
2019-04-10T05:01:16.862Z,101354.17
2019-04-10T05:03:46.966Z,101352.70
2019-04-10T05:06:18.125Z,101362.37
2019-04-10T05:08:48.588Z,101361.63
2019-04-10T05:11:18.606Z,101361.07
2019-04-10T05:13:49.005Z,101364.55
2019-04-10T05:16:19.206Z,101370.41
2019-04-10T05:18:50.098Z,101367.73
2019-04-10T05:21:21.283Z,101373.34
2019-04-10T05:23:51.643Z,101376.42
2019-04-10T05:26:22.740Z,101367.19
2019-04-10T05:28:53.141Z,101366.22
2019-04-10T05:31:23.536Z,101368.89
2019-04-10T05:33:53.631Z,101377.13
2019-04-10T05:36:23.604Z,101378.23
2019-04-10T05:38:54.456Z,101380.59
2019-04-10T05:41:24.496Z,101383.89
2019-04-10T05:43:55.059Z,101380.97
2019-04-10T05:46:25.558Z,101390.50
2019-04-10T05:48:55.922Z,101389.48
2019-04-10T05:51:25.851Z,101393.50
2019-04-10T05:53:55.828Z,101401.81
2019-04-10T05:56:28.066Z,101403.78
2019-04-10T05:58:58.653Z,101399.28
2019-04-10T06:01:35.215Z,101394.80
2019-04-10T06:04:00.902Z,101395.09
2019-04-10T06:06:32.531Z,101395.10
2019-04-10T06:09:02.983Z,101388.31
2019-04-10T06:11:33.162Z,101384.26
2019-04-10T06:14:06.421Z,101397.30
2019-04-10T06:16:37.163Z,101388.91
2019-04-10T06:19:09.522Z,101399.28
2019-04-10T06:21:39.803Z,101394.84
2019-04-10T06:24:09.840Z,101395.66
2019-04-10T06:26:39.817Z,101399.21
2019-04-10T06:29:10.812Z,101390.79
2019-04-10T06:31:41.055Z,101390.64
2019-04-10T06:34:14.367Z,101401.50
2019-04-10T06:36:43.813Z,101407.41
2019-04-10T06:39:14.067Z,101397.31
2019-04-10T06:41:44.357Z,101400.85
2019-04-10T06:44:14.352Z,101402.24
2019-04-10T06:46:44.532Z,101400.21
2019-04-10T06:49:14.713Z,101393.45
2019-04-10T06:51:45.137Z,101393.20
2019-04-10T06:54:16.441Z,101409.55
2019-04-10T06:56:48.375Z,101403.58
2019-04-10T06:59:19.107Z,101404.30
2019-04-10T07:01:54.567Z,101405.75
2019-04-10T07:04:23.005Z,101401.03
2019-04-10T07:07:01.818Z,101404.91
2019-04-10T07:09:26.859Z,101414.54
2019-04-10T07:12:00.954Z,101418.63
2019-04-10T07:14:28.922Z,101416.98
2019-04-10T07:17:05.048Z,101406.46
2019-04-10T07:19:32.375Z,101425.89
2019-04-10T07:22:07.417Z,101425.83
2019-04-10T07:24:38.939Z,101435.56
2019-04-10T07:27:07.725Z,101437.18
2019-04-10T07:29:38.348Z,101433.09
2019-04-10T07:32:10.555Z,101437.55
2019-04-10T07:34:40.368Z,101433.06
2019-04-10T07:37:12.132Z,101442.91
2019-04-10T07:39:44.723Z,101440.37
2019-04-10T07:42:26.834Z,101434.82
2019-04-10T07:44:50.011Z,101439.73
2019-04-10T07:47:21.882Z,101432.63
2019-04-10T07:49:52.592Z,101426.87
2019-04-10T07:52:24.065Z,101442.62
2019-04-10T07:54:54.593Z,101448.30
2019-04-10T07:57:24.766Z,101446.66
2019-04-10T07:59:54.764Z,101441.65
2019-04-10T08:02:25.513Z,101446.76
2019-04-10T08:04:55.995Z,101455.11
2019-04-10T08:07:30.391Z,101453.67
2019-04-10T08:09:59.181Z,101452.09
2019-04-10T08:12:39.522Z,101452.30
2019-04-10T08:15:02.781Z,101458.69
2019-04-10T08:17:34.469Z,101458.83
2019-04-10T08:20:05.839Z,101469.72
2019-04-10T08:22:36.996Z,101470.59
2019-04-10T08:25:08.730Z,101475.91
2019-04-10T08:27:39.454Z,101467.88
2019-04-10T08:30:11.043Z,101462.04
2019-04-10T08:32:53.419Z,101465.66
2019-04-10T08:35:13.273Z,101466.02
2019-04-10T08:37:43.201Z,101466.83
2019-04-10T08:40:15.647Z,101468.39
2019-04-10T08:42:47.511Z,101451.36
2019-04-10T08:45:18.922Z,101453.59
2019-04-10T08:47:49.118Z,101467.17
2019-04-10T08:50:19.779Z,101463.14
2019-04-10T08:52:50.065Z,101461.48
2019-04-10T08:55:20.165Z,101452.14
2019-04-10T08:57:50.310Z,101456.87
2019-04-10T09:00:20.691Z,101452.48
2019-04-10T09:02:51.049Z,101449.35
2019-04-10T09:05:21.701Z,101457.64
2019-04-10T09:07:52.715Z,101450.16
2019-04-10T09:10:22.870Z,101448.67
2019-04-10T09:12:54.507Z,101468.39
2019-04-10T09:15:25.776Z,101465.43
2019-04-10T09:17:55.761Z,101462.59
2019-04-10T09:20:26.796Z,101449.70
2019-04-10T09:23:17.847Z,101454.98
2019-04-10T09:25:28.642Z,101459.88
2019-04-10T09:27:58.728Z,101456.03
2019-04-10T09:30:29.203Z,101455.31
2019-04-10T09:33:00.722Z,101443.04
2019-04-10T09:35:32.857Z,101450.70
2019-04-10T09:38:02.810Z,101451.70
2019-04-10T09:40:33.600Z,101440.98
2019-04-10T09:43:03.663Z,101455.20
2019-04-10T09:45:33.733Z,101450.28
2019-04-10T09:48:04.249Z,101451.61
2019-04-10T09:50:35.451Z,101450.73
2019-04-10T09:53:05.591Z,101448.55
2019-04-10T09:55:36.279Z,101437.05
2019-04-10T09:58:06.848Z,101437.05
2019-04-10T10:00:37.892Z,101442.05
2019-04-10T10:03:07.991Z,101434.94
2019-04-10T10:05:39.046Z,101439.48
2019-04-10T10:08:09.173Z,101435.22
2019-04-10T10:10:39.877Z,101435.95
2019-04-10T10:13:09.979Z,101450.36
2019-04-10T10:15:41.171Z,101448.22
2019-04-10T10:18:11.252Z,101440.13
2019-04-10T10:20:41.479Z,101437.11
2019-04-10T10:23:11.804Z,101452.41
2019-04-10T10:25:41.968Z,101449.02
2019-04-10T10:28:11.900Z,101439.97
2019-04-10T10:30:42.159Z,101444.80
2019-04-10T10:33:13.175Z,101449.91
2019-04-10T10:35:43.346Z,101439.08
2019-04-10T10:38:14.557Z,101457.28
2019-04-10T10:40:45.046Z,101447.22
2019-04-10T10:43:16.125Z,101433.70
2019-04-10T10:45:47.130Z,101439.86
2019-04-10T10:48:17.694Z,101444.83
2019-04-10T10:50:49.830Z,101436.03
2019-04-10T10:53:20.254Z,101440.67
2019-04-10T10:55:50.226Z,101448.62
2019-04-10T10:58:20.423Z,101442.75
2019-04-10T11:00:51.630Z,101437.47
2019-04-10T11:03:22.450Z,101437.91
2019-04-10T11:05:52.903Z,101438.64
2019-04-10T11:08:24.054Z,101448.90
2019-04-10T11:10:56.354Z,101434.58
2019-04-10T11:13:26.907Z,101433.25
2019-04-10T11:15:56.869Z,101435.97
2019-04-10T11:18:26.802Z,101433.55
2019-04-10T11:21:02.740Z,101433.86
2019-04-10T11:23:28.736Z,101422.81
2019-04-10T11:25:59.691Z,101418.22
2019-04-10T11:28:30.703Z,101438.73
2019-04-10T11:31:01.882Z,101429.37
2019-04-10T11:33:32.950Z,101431.48
2019-04-10T11:36:03.801Z,101433.41
2019-04-10T11:38:33.760Z,101417.63
2019-04-10T11:41:07.237Z,101418.45
2019-04-10T11:43:38.051Z,101428.47
2019-04-10T11:46:10.141Z,101434.58
2019-04-10T11:48:44.714Z,101430.33
2019-04-10T11:51:13.481Z,101436.39
2019-04-10T11:53:47.672Z,101438.83
2019-04-10T11:58:54.029Z,101431.94
2019-04-10T12:01:21.624Z,101429.41
2019-04-10T12:03:54.377Z,101432.79
2019-04-10T12:06:25.465Z,101430.15
2019-04-10T12:11:27.397Z,101422.59
2019-04-10T12:13:57.500Z,101429.32
2019-04-10T12:16:27.509Z,101438.41
2019-04-10T12:18:57.484Z,101422.59
2019-04-10T12:21:27.954Z,101421.02
2019-04-10T12:23:58.871Z,101419.89
2019-04-10T12:26:32.060Z,101420.81
2019-04-10T12:29:02.511Z,101423.64
2019-04-10T12:31:34.599Z,101431.64
2019-04-10T12:34:04.671Z,101424.44
2019-04-10T12:36:35.044Z,101437.75
2019-04-10T12:39:09.263Z,101453.41
2019-04-10T12:41:40.123Z,101437.33
2019-04-10T12:44:11.662Z,101421.25
2019-04-10T12:46:43.588Z,101423.86
2019-04-10T12:49:13.718Z,101424.78
2019-04-10T12:51:43.880Z,101419.67
2019-04-10T12:54:14.843Z,101419.30
2019-04-10T12:56:46.344Z,101422.20
2019-04-10T12:59:17.329Z,101426.77
2019-04-10T13:01:49.050Z,101422.52
2019-04-10T13:04:19.977Z,101430.88
2019-04-10T13:06:52.678Z,101416.67
2019-04-10T13:09:24.130Z,101432.06
2019-04-10T13:11:54.297Z,101429.16
2019-04-10T13:14:24.468Z,101421.94
2019-04-10T13:16:56.382Z,101417.53
2019-04-10T13:19:27.118Z,101425.80
2019-04-10T13:21:59.976Z,101421.02
2019-04-10T13:24:30.378Z,101406.66
2019-04-10T13:27:00.604Z,101414.80
2019-04-10T13:29:30.598Z,101410.53
2019-04-10T13:32:01.393Z,101426.06
2019-04-10T13:34:31.363Z,101429.96
2019-04-10T13:37:02.061Z,101425.73
2019-04-10T13:39:32.979Z,101430.91
2019-04-10T13:42:03.281Z,101435.55
2019-04-10T13:44:33.416Z,101429.39
2019-04-10T13:47:04.916Z,101428.89
2019-04-10T13:49:35.721Z,101425.83
2019-04-10T13:52:06.050Z,101433.67
2019-04-10T13:54:36.845Z,101423.59
2019-04-10T13:57:07.951Z,101436.73
2019-04-10T13:59:39.418Z,101429.27
2019-04-10T14:02:15.729Z,101431.96
2019-04-10T14:04:47.198Z,101430.33
2019-04-10T14:07:18.308Z,101422.89
2019-04-10T14:09:51.544Z,101433.55
2019-04-10T14:12:20.796Z,101432.92
2019-04-10T14:14:51.079Z,101439.12
2019-04-10T14:17:21.549Z,101432.59
2019-04-10T14:19:51.989Z,101434.73
2019-04-10T14:22:22.557Z,101438.88
2019-04-10T14:24:53.608Z,101438.47
2019-04-10T14:27:26.155Z,101439.72
2019-04-10T14:29:56.780Z,101444.63
2019-04-10T14:32:31.426Z,101447.36
2019-04-10T14:35:01.760Z,101453.11
2019-04-10T14:37:31.820Z,101459.28
2019-04-10T14:40:02.182Z,101458.11
2019-04-10T14:42:32.730Z,101452.48
2019-04-10T14:45:03.537Z,101441.89
2019-04-10T14:47:33.842Z,101454.75
2019-04-10T14:50:05.264Z,101446.45
2019-04-10T14:52:45.927Z,101463.70
2019-04-10T14:55:16.600Z,101465.33
2019-04-10T14:57:47.416Z,101462.41
2019-04-10T15:00:31.142Z,101461.48
2019-04-10T15:03:02.214Z,101461.33
2019-04-10T15:05:44.515Z,101462.97
2019-04-10T15:08:04.727Z,101466.05
2019-04-10T15:10:34.959Z,101464.79
2019-04-10T15:13:12.114Z,101467.88
2019-04-10T15:15:36.976Z,101466.52
2019-04-10T15:18:06.999Z,101471.81
2019-04-10T15:20:37.627Z,101486.70
2019-04-10T15:23:07.940Z,101481.00
2019-04-10T15:25:38.008Z,101489.60
2019-04-10T15:28:08.549Z,101486.06
2019-04-10T15:30:39.235Z,101485.14
2019-04-10T15:33:10.087Z,101486.22
2019-04-10T15:35:41.489Z,101482.47
2019-04-10T15:38:11.848Z,101486.62
2019-04-10T15:40:42.132Z,101496.42
2019-04-10T15:43:12.639Z,101493.28
2019-04-10T15:45:44.043Z,101493.35
2019-04-10T15:48:14.567Z,101486.98
2019-04-10T15:50:44.982Z,101488.92
2019-04-10T15:53:15.934Z,101491.61
2019-04-10T15:55:45.855Z,101496.78
2019-04-10T15:58:17.201Z,101492.81
2019-04-10T16:00:47.842Z,101484.76
2019-04-10T16:03:21.734Z,101490.77
2019-04-10T16:05:50.570Z,101494.72
2019-04-10T16:08:20.931Z,101491.53
2019-04-10T16:11:01.433Z,101495.48
2019-04-10T16:13:44.387Z,101494.79
2019-04-10T16:16:40.475Z,101496.41
2019-04-10T16:19:36.776Z,101496.31
2019-04-10T16:22:14.899Z,101500.61
2019-04-10T16:24:45.338Z,101495.64
2019-04-10T16:27:15.963Z,101499.69
2019-04-10T16:29:49.192Z,101498.70
2019-04-10T16:32:20.953Z,101497.66
2019-04-10T16:34:51.279Z,101502.14
2019-04-10T16:37:22.233Z,101503.22
2019-04-10T16:40:00.475Z,101504.79
2019-04-10T16:42:24.677Z,101515.14
2019-04-10T16:44:54.826Z,101508.99
2019-04-10T16:47:26.046Z,101518.16
2019-04-10T16:49:57.229Z,101517.70
2019-04-10T16:52:28.925Z,101519.11
2019-04-10T16:54:59.943Z,101515.02
2019-04-10T16:57:31.000Z,101521.51
2019-04-10T17:00:02.748Z,101518.73
2019-04-10T17:02:33.842Z,101512.52
2019-04-10T17:05:04.361Z,101529.22
2019-04-10T17:07:34.859Z,101531.42
2019-04-10T17:10:14.917Z,101521.70
2019-04-10T17:12:42.144Z,101523.38
2019-04-10T17:15:36.715Z,101526.20
2019-04-10T17:18:21.441Z,101530.20
2019-04-10T17:20:52.910Z,101530.90
2019-04-10T17:23:26.875Z,101527.80
2019-04-10T17:25:58.273Z,101533.81
2019-04-10T17:28:29.329Z,101531.48
2019-04-10T17:31:00.299Z,101536.25
2019-04-10T17:33:30.483Z,101537.90
2019-04-10T17:36:02.237Z,101536.53
2019-04-10T17:38:32.597Z,101542.11
2019-04-10T17:41:04.382Z,101545.08
2019-04-10T17:43:35.218Z,101551.23
2019-04-10T17:46:06.943Z,101558.78
2019-04-10T17:48:38.546Z,101557.77
2019-04-10T17:51:10.348Z,101560.70
2019-04-10T17:53:41.958Z,101562.30
2019-04-10T17:56:12.182Z,101561.56
2019-04-10T17:58:43.444Z,101562.16
2019-04-10T18:01:17.072Z,101564.42
2019-04-10T18:03:56.591Z,101571.16
2019-04-10T18:06:23.775Z,101579.60
2019-04-10T18:08:57.030Z,101585.14
2019-04-10T18:11:27.956Z,101591.50
2019-04-10T18:13:58.635Z,101593.55
2019-04-10T18:16:29.638Z,101592.72
2019-04-10T18:19:00.623Z,101599.41
2019-04-10T18:21:30.899Z,101606.95
2019-04-10T18:24:06.138Z,101618.62
2019-04-10T18:26:42.063Z,101617.48
2019-04-10T18:29:14.873Z,101620.27
2019-04-10T18:31:45.215Z,101618.11
2019-04-10T18:34:15.525Z,101625.51
2019-04-10T18:36:48.523Z,101630.97
2019-04-10T18:39:18.572Z,101626.97
2019-04-10T18:41:48.872Z,101627.30
2019-04-10T18:44:20.551Z,101631.61
2019-04-10T18:46:52.181Z,101636.45
2019-04-10T18:49:23.167Z,101643.44
2019-04-10T18:51:54.167Z,101643.99
2019-04-10T18:54:24.939Z,101643.34
2019-04-10T18:56:55.681Z,101647.39
2019-04-10T18:59:38.864Z,101655.08
2019-04-10T19:02:34.831Z,101655.74
2019-04-10T19:05:14.035Z,101661.16
2019-04-10T19:07:44.160Z,101658.48
2019-04-10T19:10:14.740Z,101668.82
2019-04-10T19:12:45.263Z,101656.63
2019-04-10T19:15:16.872Z,101663.16
2019-04-10T19:17:46.981Z,101657.02
2019-04-10T19:20:17.998Z,101667.63
2019-04-10T19:22:48.697Z,101673.00
2019-04-10T19:25:19.127Z,101664.55
2019-04-10T19:27:50.583Z,101668.38
2019-04-10T19:30:35.738Z,101676.00
2019-04-10T19:33:05.986Z,101683.22
2019-04-10T19:35:37.177Z,101678.69
2019-04-10T19:38:07.458Z,101668.63
2019-04-10T19:40:38.720Z,101674.86
2019-04-10T19:43:10.247Z,101680.42
2019-04-10T19:45:41.839Z,101677.08
2019-04-10T19:48:12.143Z,101681.70
2019-04-10T19:50:43.709Z,101685.44
2019-04-10T19:53:14.896Z,101686.86
2019-04-10T19:55:46.047Z,101682.02
2019-04-10T19:58:17.594Z,101679.05
2019-04-10T20:00:49.037Z,101686.27
2019-04-10T20:03:19.530Z,101684.20
2019-04-10T20:05:50.018Z,101691.02
2019-04-10T20:08:20.193Z,101696.22
2019-04-10T20:10:53.130Z,101698.41
2019-04-10T20:13:23.069Z,101704.74
2019-04-10T20:15:53.241Z,101704.59
2019-04-10T20:18:24.416Z,101704.65
2019-04-10T20:20:55.462Z,101710.63
2019-04-10T20:23:25.740Z,101691.40
2019-04-10T20:25:56.858Z,101709.07
2019-04-10T20:28:27.403Z,101714.58
2019-04-10T20:30:58.100Z,101711.23
2019-04-10T20:33:30.462Z,101712.88
2019-04-10T20:36:00.883Z,101716.23
2019-04-10T20:38:32.340Z,101722.77
2019-04-10T20:41:02.548Z,101719.75
2019-04-10T20:43:33.686Z,101714.55
2019-04-10T20:46:05.127Z,101720.77
2019-04-10T20:48:36.200Z,101722.24
2019-04-10T20:51:06.446Z,101731.44
2019-04-10T20:53:36.500Z,101735.82
2019-04-10T20:56:06.700Z,101741.17
2019-04-10T20:58:36.862Z,101746.15
2019-04-10T21:01:08.253Z,101752.56
2019-04-10T21:03:38.251Z,101756.55
2019-04-10T21:06:08.985Z,101763.30
2019-04-10T21:08:39.087Z,101765.91
2019-04-10T21:11:13.744Z,101762.83
2019-04-10T21:13:44.653Z,101765.02
2019-04-10T21:16:15.588Z,101773.48
2019-04-10T21:18:46.226Z,101775.83
2019-04-10T21:21:16.580Z,101778.16
2019-04-10T21:23:46.547Z,101780.30
2019-04-10T21:26:16.660Z,101778.00
2019-04-10T21:28:48.116Z,101794.00
2019-04-10T21:31:36.400Z,101790.67
2019-04-10T21:34:40.607Z,101784.92
2019-04-10T21:37:10.624Z,101796.38
2019-04-10T21:39:41.540Z,101805.09
2019-04-10T21:42:19.415Z,101798.75
2019-04-10T21:44:43.573Z,101809.31
2019-04-10T21:47:14.193Z,101810.32
2019-04-10T21:49:44.455Z,101819.80
2019-04-10T21:52:14.407Z,101813.44
2019-04-10T21:54:49.509Z,101820.88
2019-04-10T21:57:16.546Z,101813.41
2019-04-10T21:59:47.557Z,101818.87
2019-04-10T22:02:17.817Z,101823.54
2019-04-10T22:04:47.738Z,101824.97
2019-04-10T22:07:43.129Z,101815.09
2019-04-10T22:10:32.220Z,101821.02
2019-04-10T22:13:03.638Z,101828.02
2019-04-10T22:15:41.367Z,101821.37
2019-04-10T22:18:12.744Z,101820.27
2019-04-10T22:20:43.690Z,101819.87
2019-04-10T22:23:14.381Z,101827.30
2019-04-10T22:25:44.401Z,101832.06
2019-04-10T22:28:14.915Z,101836.24
2019-04-10T22:30:45.731Z,101836.03
2019-04-10T22:33:18.150Z,101837.36
2019-04-10T22:35:48.438Z,101834.88
2019-04-10T22:38:20.078Z,101834.17
2019-04-10T22:40:50.751Z,101838.50
2019-04-10T22:43:22.370Z,101841.21
2019-04-10T22:45:54.951Z,101843.37
2019-04-10T22:48:25.563Z,101837.31
2019-04-10T22:50:56.108Z,101841.05
2019-04-10T22:53:28.849Z,101840.19
2019-04-10T22:56:00.461Z,101840.17
2019-04-10T22:58:31.219Z,101847.66
2019-04-10T23:01:02.553Z,101842.52
2019-04-10T23:03:33.061Z,101851.33
2019-04-10T23:06:03.544Z,101848.35
2019-04-10T23:08:33.942Z,101850.60
2019-04-10T23:11:05.614Z,101854.63
2019-04-10T23:13:38.306Z,101852.93
2019-04-10T23:16:09.754Z,101853.33
2019-04-10T23:18:41.389Z,101852.39
2019-04-10T23:21:12.324Z,101854.63
2019-04-10T23:23:43.478Z,101862.98
2019-04-10T23:26:14.862Z,101861.19
2019-04-10T23:28:45.534Z,101862.27
2019-04-10T23:31:17.352Z,101860.16
2019-04-10T23:33:48.287Z,101862.16
2019-04-10T23:36:18.831Z,101864.05
2019-04-10T23:38:52.140Z,101863.28
2019-04-10T23:41:23.344Z,101866.04
2019-04-10T23:43:53.684Z,101868.08
2019-04-10T23:46:23.988Z,101860.87
2019-04-10T23:48:55.147Z,101869.20
2019-04-10T23:51:25.363Z,101877.94
2019-04-10T23:53:55.739Z,101868.56
2019-04-10T23:56:25.967Z,101878.43
2019-04-10T23:58:56.208Z,101875.52
